createdAt,value
2019-03-31T00:02:14.570Z,100479.38
2019-03-31T00:07:19.113Z,100475.41
2019-03-31T00:12:23.766Z,100475.41
2019-03-31T00:17:28.326Z,100480.81
2019-03-31T00:22:32.919Z,100477.17
2019-03-31T00:27:37.550Z,100477.17
2019-03-31T00:32:42.198Z,100483.91
2019-03-31T00:37:46.789Z,100483.91
2019-03-31T00:42:51.365Z,100480.35
2019-03-31T00:47:55.915Z,100481.70
2019-03-31T00:53:00.461Z,100474.47
2019-03-31T00:58:05.001Z,100479.00
2019-03-31T01:03:09.812Z,100470.91
2019-03-31T01:08:15.455Z,100470.91
2019-03-31T01:13:20.115Z,100479.86
2019-03-31T01:18:24.701Z,100475.81
2019-03-31T01:23:29.574Z,100472.72
2019-03-31T01:28:34.375Z,100472.72
2019-03-31T01:33:39.370Z,100481.58
2019-03-31T01:38:43.998Z,100481.58
2019-03-31T01:43:48.526Z,100483.99
2019-03-31T01:48:53.311Z,100479.09
2019-03-31T01:53:57.869Z,100479.20
2019-03-31T01:59:02.515Z,100478.23
2019-03-31T02:04:07.208Z,100482.27
2019-03-31T02:09:11.943Z,100483.25
2019-03-31T02:14:16.482Z,100472.60
2019-03-31T02:19:21.288Z,100472.60
2019-03-31T02:24:25.822Z,100484.72
2019-03-31T02:29:30.408Z,100474.55
2019-03-31T02:34:34.982Z,100474.55
2019-03-31T02:39:39.624Z,100488.09
2019-03-31T02:44:44.225Z,100488.09
2019-03-31T02:49:48.748Z,100485.03
2019-03-31T02:54:53.533Z,100495.07
2019-03-31T03:00:00.446Z,100495.07
2019-03-31T03:05:18.991Z,100497.36
2019-03-31T03:10:12.102Z,100500.86
2019-03-31T03:15:27.503Z,100507.23
2019-03-31T03:20:32.043Z,100506.48
2019-03-31T03:25:54.485Z,100508.69
2019-03-31T03:30:43.630Z,100509.29
2019-03-31T03:35:48.600Z,100511.58
2019-03-31T03:45:56.433Z,100514.50
2019-03-31T03:51:00.970Z,100517.80
2019-03-31T03:56:05.876Z,100516.98
2019-03-31T04:01:13.956Z,100510.41
2019-03-31T04:06:18.790Z,100531.18
2019-03-31T04:11:27.319Z,100533.09
2019-03-31T04:16:32.002Z,100528.19
2019-03-31T04:21:36.613Z,100534.18
2019-03-31T04:26:41.236Z,100533.31
2019-03-31T04:31:45.838Z,100540.55
2019-03-31T04:36:50.468Z,100541.11
2019-03-31T04:41:55.079Z,100555.45
2019-03-31T04:46:59.719Z,100558.36
2019-03-31T04:52:04.389Z,100559.80
2019-03-31T04:57:08.922Z,100563.09
2019-03-31T05:02:13.471Z,100563.09
2019-03-31T05:07:18.041Z,100574.09
2019-03-31T05:12:22.612Z,100574.09
2019-03-31T05:17:27.284Z,100577.34
2019-03-31T05:22:31.837Z,100589.77
2019-03-31T05:27:36.441Z,100600.17
2019-03-31T05:32:40.973Z,100601.62
2019-03-31T05:37:51.199Z,100610.69
2019-03-31T05:42:51.920Z,100615.29
2019-03-31T05:47:56.478Z,100610.52
2019-03-31T05:53:01.007Z,100610.52
2019-03-31T05:58:05.654Z,100626.66
2019-03-31T06:03:10.236Z,100626.66
2019-03-31T06:08:15.007Z,100642.45
2019-03-31T06:13:19.574Z,100634.57
2019-03-31T06:18:24.176Z,100634.57
2019-03-31T06:23:28.721Z,100642.25
2019-03-31T06:28:33.256Z,100647.16
2019-03-31T06:33:37.884Z,100659.39
2019-03-31T06:38:42.627Z,100659.01
2019-03-31T06:43:47.175Z,100668.44
2019-03-31T06:48:51.760Z,100670.76
2019-03-31T06:53:56.314Z,100678.14
2019-03-31T06:59:00.900Z,100678.14
2019-03-31T07:04:05.617Z,100692.69
2019-03-31T07:09:10.183Z,100683.45
2019-03-31T07:14:14.818Z,100705.42
2019-03-31T07:19:19.488Z,100726.79
2019-03-31T07:24:24.055Z,100732.81
2019-03-31T07:29:28.633Z,100730.42
2019-03-31T07:34:33.273Z,100734.39
2019-03-31T07:42:30.807Z,100738.61
2019-03-31T07:47:35.475Z,100746.80
2019-03-31T07:52:40.308Z,100746.80
2019-03-31T07:57:45.050Z,100749.36
2019-03-31T08:02:49.755Z,100762.87
2019-03-31T08:07:54.381Z,100776.49
2019-03-31T08:12:58.935Z,100781.67
2019-03-31T08:18:03.590Z,100788.23
2019-03-31T08:23:08.126Z,100792.17
2019-03-31T08:28:12.844Z,100795.08
2019-03-31T08:33:17.367Z,100801.23
2019-03-31T08:38:24.411Z,100805.16
2019-03-31T08:43:28.278Z,100805.16
2019-03-31T08:48:32.818Z,100813.55
2019-03-31T08:53:37.354Z,100824.31
2019-03-31T08:58:42.013Z,100842.58
2019-03-31T09:03:46.604Z,100850.11
2019-03-31T09:08:51.266Z,100850.11
2019-03-31T09:13:55.835Z,100847.22
2019-03-31T09:19:00.557Z,100847.70
2019-03-31T09:24:05.302Z,100857.02
2019-03-31T09:29:09.917Z,100859.64
2019-03-31T09:34:14.535Z,100863.97
2019-03-31T09:39:19.181Z,100864.83
2019-03-31T09:44:23.727Z,100865.59
2019-03-31T09:49:28.457Z,100858.80
2019-03-31T09:54:32.998Z,100854.18
2019-03-31T09:59:37.555Z,100859.08
2019-03-31T10:04:42.181Z,100862.16
2019-03-31T10:09:47.668Z,100862.09
2019-03-31T10:14:54.270Z,100862.95
2019-03-31T10:19:58.545Z,100860.30
2019-03-31T10:25:03.308Z,100863.09
2019-03-31T10:30:09.011Z,100860.19
2019-03-31T10:35:13.745Z,100860.19
2019-03-31T10:40:18.400Z,100862.30
2019-03-31T10:45:23.035Z,100862.30
2019-03-31T10:50:27.954Z,100867.73
2019-03-31T10:55:32.606Z,100867.73
2019-03-31T11:00:38.028Z,100871.94
2019-03-31T11:05:42.684Z,100867.52
2019-03-31T11:10:47.398Z,100867.52
2019-03-31T11:15:51.964Z,100880.02
2019-03-31T11:20:58.158Z,100880.02
2019-03-31T11:26:02.773Z,100891.55
2019-03-31T11:31:07.378Z,100897.91
2019-03-31T11:36:12.166Z,100902.33
2019-03-31T11:41:16.912Z,100906.47
2019-03-31T11:46:21.484Z,100906.47
2019-03-31T11:51:26.143Z,100912.33
2019-03-31T11:56:30.708Z,100911.37
2019-03-31T12:01:35.600Z,100916.69
2019-03-31T12:06:40.301Z,100916.69
2019-03-31T12:11:45.743Z,100913.89
2019-03-31T12:16:50.557Z,100910.23
2019-03-31T12:21:55.225Z,100907.06
2019-03-31T12:26:59.805Z,100911.00
2019-03-31T12:32:04.530Z,100912.35
2019-03-31T12:37:09.098Z,100896.98
2019-03-31T12:42:13.718Z,100899.58
2019-03-31T12:47:18.275Z,100895.64
2019-03-31T12:52:22.989Z,100891.88
2019-03-31T12:57:27.582Z,100892.20
2019-03-31T13:02:32.145Z,100892.20
2019-03-31T13:07:36.689Z,100883.75
2019-03-31T13:12:41.350Z,100887.20
2019-03-31T13:17:46.111Z,100883.85
2019-03-31T13:22:50.691Z,100879.33
2019-03-31T13:27:55.279Z,100881.44
2019-03-31T13:33:00.045Z,100881.44
2019-03-31T13:38:10.950Z,100872.88
2019-03-31T13:43:11.131Z,100871.19
2019-03-31T13:48:15.806Z,100867.80
2019-03-31T13:53:20.361Z,100866.45
2019-03-31T13:58:25.510Z,100863.83
2019-03-31T14:03:30.684Z,100863.48
2019-03-31T14:08:35.263Z,100868.45
2019-03-31T14:13:39.840Z,100869.05
2019-03-31T14:18:44.489Z,100866.07
2019-03-31T14:23:49.099Z,100865.00
2019-03-31T14:28:53.768Z,100866.34
2019-03-31T14:33:58.595Z,100866.45
2019-03-31T14:39:04.952Z,100871.73
2019-03-31T14:44:09.617Z,100866.73
2019-03-31T14:49:14.279Z,100869.53
2019-03-31T14:54:18.837Z,100872.12
2019-03-31T14:59:23.387Z,100860.48
2019-03-31T15:04:28.043Z,100870.39
2019-03-31T15:09:32.602Z,100876.16
2019-03-31T15:14:37.158Z,100852.95
2019-03-31T15:19:41.942Z,100865.97
2019-03-31T15:24:46.512Z,100877.30
2019-03-31T15:29:51.061Z,100877.40
2019-03-31T15:34:55.651Z,100877.40
2019-03-31T15:40:00.196Z,100885.69
2019-03-31T15:45:05.075Z,100883.86
2019-03-31T15:50:10.216Z,100883.09
2019-03-31T15:55:15.018Z,100892.11
2019-03-31T16:00:20.063Z,100893.46
2019-03-31T16:05:24.627Z,100891.25
2019-03-31T16:10:28.652Z,100894.81
2019-03-31T16:15:32.750Z,100891.84
2019-03-31T16:20:36.797Z,100891.84
2019-03-31T16:25:44.332Z,100890.97
2019-03-31T16:30:48.354Z,100890.87
2019-03-31T16:35:52.447Z,100891.84
2019-03-31T16:40:56.653Z,100894.09
2019-03-31T16:46:00.665Z,100896.13
2019-03-31T16:51:04.749Z,100896.13
2019-03-31T16:56:08.884Z,100889.36
2019-03-31T17:01:12.985Z,100889.36
2019-03-31T17:06:17.100Z,100890.92
2019-03-31T17:11:21.127Z,100883.42
2019-03-31T17:16:25.152Z,100895.69
2019-03-31T17:21:29.251Z,100895.69
2019-03-31T17:26:33.380Z,100898.04
2019-03-31T17:31:37.520Z,100904.86
2019-03-31T17:36:41.557Z,100904.52
2019-03-31T17:41:45.624Z,100904.52
2019-03-31T17:46:49.722Z,100917.45
2019-03-31T17:51:53.774Z,100922.38
2019-03-31T17:56:57.864Z,100922.38
2019-03-31T18:02:01.899Z,100923.62
2019-03-31T18:07:06.108Z,100927.37
2019-03-31T18:12:10.134Z,100941.63
2019-03-31T18:17:14.201Z,100941.83
2019-03-31T18:22:18.253Z,100943.84
2019-03-31T18:27:22.315Z,100954.05
2019-03-31T18:32:26.419Z,100967.16
2019-03-31T18:37:30.473Z,100967.16
2019-03-31T18:42:34.675Z,100977.73
2019-03-31T18:47:38.916Z,100979.49
2019-03-31T18:52:43.033Z,100979.49
2019-03-31T18:58:04.865Z,100978.22
2019-03-31T19:03:33.635Z,100985.16
2019-03-31T19:08:44.532Z,100988.23
2019-03-31T19:14:06.264Z,100990.66
2019-03-31T19:19:20.775Z,100986.16
2019-03-31T19:25:01.990Z,100982.67
2019-03-31T19:30:38.032Z,100982.67
2019-03-31T19:36:03.786Z,101001.23
2019-03-31T19:41:30.550Z,101007.70
2019-03-31T19:46:42.461Z,101007.70
2019-03-31T19:52:06.426Z,101012.13
2019-03-31T19:57:18.291Z,101015.10
2019-03-31T20:02:44.341Z,101019.53
2019-03-31T20:08:03.218Z,101019.53
2019-03-31T20:13:28.203Z,101024.05
2019-03-31T20:18:53.331Z,101031.38
2019-03-31T20:24:07.089Z,101031.38
2019-03-31T20:29:36.372Z,101036.28
2019-03-31T20:35:02.312Z,101030.41
2019-03-31T20:40:23.276Z,101030.41
2019-03-31T20:45:27.343Z,101027.61
2019-03-31T20:50:31.448Z,101037.92
2019-03-31T20:55:35.467Z,101037.92
2019-03-31T21:00:39.537Z,101047.29
2019-03-31T21:05:43.661Z,101053.55
2019-03-31T21:10:47.678Z,101051.98
2019-03-31T21:15:51.719Z,101057.21
2019-03-31T21:20:55.775Z,101050.05
2019-03-31T21:25:59.865Z,101053.34
2019-03-31T21:31:03.976Z,101069.80
2019-03-31T21:36:08.002Z,101069.80
2019-03-31T21:41:14.146Z,101056.57
2019-03-31T21:46:18.051Z,101074.05
2019-03-31T21:51:22.152Z,101055.66
2019-03-31T21:56:26.249Z,101055.66
2019-03-31T22:01:31.570Z,101079.53
2019-03-31T22:06:35.800Z,101081.05
2019-03-31T22:11:39.844Z,101076.38
2019-03-31T22:16:44.122Z,101089.91
2019-03-31T22:21:48.348Z,101089.91
2019-03-31T22:26:52.466Z,101076.09
2019-03-31T22:31:56.611Z,101094.05
2019-03-31T22:37:01.662Z,101096.27
2019-03-31T22:42:05.850Z,101103.39
2019-03-31T22:47:09.982Z,101094.84
2019-03-31T23:02:20.283Z,101099.77
2019-03-31T23:07:24.470Z,101088.61
2019-03-31T23:12:28.622Z,101097.06
2019-03-31T23:17:32.824Z,101103.32
2019-03-31T23:22:36.924Z,101101.59
2019-03-31T23:27:40.955Z,101101.59
2019-03-31T23:32:45.002Z,101086.71
2019-03-31T23:37:49.086Z,101100.24
2019-03-31T23:42:53.163Z,101100.24
2019-03-31T23:47:57.229Z,101097.06
2019-03-31T23:53:01.248Z,101097.06
